Terminal Aerodrome Forecast
Issued by NWS

Home | Current Version | Previous Version | Text Only | Print | Product List | Glossary On
Versions: 1 2 3 4 5 6 7 8 9 10 11 12 13 14 15 16 17 18 19
910
FTUS43 KTOP 292326
TAFMHK
TAF
KMHK 292326Z 3000/3024 04012G22KT 5SM -SHRA OVC008
     FM300100 03011KT 5SM -SHRA OVC008
     FM300600 36008KT 3SM -SHRA OVC006
     FM301400 36011G19KT 3SM -SHRA OVC006
     FM301800 35011G19KT P6SM OVC008=

USA.gov is the U.S. government's official web portal to all federal, state and local government web resources and services.